sensor_id;sensor_type;location;lat;lon;timestamp;temperature;humidity
68051;DHT22;54839;51.364;7.246;2022-08-21T00:00:40;16.20;99.90
68051;DHT22;54839;51.364;7.246;2022-08-21T00:03:08;16.20;99.90
68051;DHT22;54839;51.364;7.246;2022-08-21T00:05:44;16.10;99.90
68051;DHT22;54839;51.364;7.246;2022-08-21T00:08:11;16.10;99.90
68051;DHT22;54839;51.364;7.246;2022-08-21T00:10:37;16.10;99.90
68051;DHT22;54839;51.364;7.246;2022-08-21T00:13:04;16.10;99.90
68051;DHT22;54839;51.364;7.246;2022-08-21T00:15:34;16.10;99.90
68051;DHT22;54839;51.364;7.246;2022-08-21T00:17:59;16.10;99.90
68051;DHT22;54839;51.364;7.246;2022-08-21T00:20:25;16.10;99.90
68051;DHT22;54839;51.364;7.246;2022-08-21T00:22:52;16.10;99.90
68051;DHT22;54839;51.364;7.246;2022-08-21T00:25:19;15.90;99.90
68051;DHT22;54839;51.364;7.246;2022-08-21T00:27:45;15.80;99.90
68051;DHT22;54839;51.364;7.246;2022-08-21T00:30:13;15.70;99.90
68051;DHT22;54839;51.364;7.246;2022-08-21T00:32:40;15.70;99.90
68051;DHT22;54839;51.364;7.246;2022-08-21T00:35:11;15.70;99.90
68051;DHT22;54839;51.364;7.246;2022-08-21T00:37:39;15.50;99.90
68051;DHT22;54839;51.364;7.246;2022-08-21T00:40:09;15.60;99.90
68051;DHT22;54839;51.364;7.246;2022-08-21T00:42:35;15.60;99.90
68051;DHT22;54839;51.364;7.246;2022-08-21T00:45:01;15.60;99.90
68051;DHT22;54839;51.364;7.246;2022-08-21T00:47:27;15.80;99.90
68051;DHT22;54839;51.364;7.246;2022-08-21T00:49:53;15.70;99.90
68051;DHT22;54839;51.364;7.246;2022-08-21T00:52:25;15.70;99.90
68051;DHT22;54839;51.364;7.246;2022-08-21T00:54:52;15.70;99.90
68051;DHT22;54839;51.364;7.246;2022-08-21T00:57:34;15.60;99.90
68051;DHT22;54839;51.364;7.246;2022-08-21T01:00:05;15.70;99.90
68051;DHT22;54839;51.364;7.246;2022-08-21T01:02:31;15.70;99.90
68051;DHT22;54839;51.364;7.246;2022-08-21T01:04:57;15.70;99.90
68051;DHT22;54839;51.364;7.246;2022-08-21T01:07:22;15.70;99.90
68051;DHT22;54839;51.364;7.246;2022-08-21T01:09:48;15.80;99.90
68051;DHT22;54839;51.364;7.246;2022-08-21T01:12:14;15.80;99.90
68051;DHT22;54839;51.364;7.246;2022-08-21T01:14:41;15.90;99.90
68051;DHT22;54839;51.364;7.246;2022-08-21T01:17:10;16.00;99.90
68051;DHT22;54839;51.364;7.246;2022-08-21T01:19:37;16.00;99.90
68051;DHT22;54839;51.364;7.246;2022-08-21T01:22:02;16.00;99.90
68051;DHT22;54839;51.364;7.246;2022-08-21T01:24:28;16.10;99.90
68051;DHT22;54839;51.364;7.246;2022-08-21T01:26:54;16.00;99.90
68051;DHT22;54839;51.364;7.246;2022-08-21T01:31:48;16.20;99.90
68051;DHT22;54839;51.364;7.246;2022-08-21T01:34:14;16.00;99.90
68051;DHT22;54839;51.364;7.246;2022-08-21T01:36:42;16.10;99.90
68051;DHT22;54839;51.364;7.246;2022-08-21T01:39:08;15.90;99.90
68051;DHT22;54839;51.364;7.246;2022-08-21T01:41:34;15.80;99.90
68051;DHT22;54839;51.364;7.246;2022-08-21T01:44:00;15.70;99.90
68051;DHT22;54839;51.364;7.246;2022-08-21T01:46:26;15.70;99.90
68051;DHT22;54839;51.364;7.246;2022-08-21T01:48:51;15.60;99.90
68051;DHT22;54839;51.364;7.246;2022-08-21T01:51:17;15.50;99.90
68051;DHT22;54839;51.364;7.246;2022-08-21T01:53:43;15.50;99.90
68051;DHT22;54839;51.364;7.246;2022-08-21T01:56:11;15.40;99.90
68051;DHT22;54839;51.364;7.246;2022-08-21T01:58:38;15.30;99.90
68051;DHT22;54839;51.364;7.246;2022-08-21T02:01:04;15.30;99.90
68051;DHT22;54839;51.364;7.246;2022-08-21T02:03:29;15.20;99.90
68051;DHT22;54839;51.364;7.246;2022-08-21T02:05:56;15.30;99.90
68051;DHT22;54839;51.364;7.246;2022-08-21T02:08:22;15.10;99.90
68051;DHT22;54839;51.364;7.246;2022-08-21T02:10:49;15.00;99.90
68051;DHT22;54839;51.364;7.246;2022-08-21T02:13:16;14.90;99.90
68051;DHT22;54839;51.364;7.246;2022-08-21T02:15:42;14.90;99.90
68051;DHT22;54839;51.364;7.246;2022-08-21T02:18:07;15.00;99.90
68051;DHT22;54839;51.364;7.246;2022-08-21T02:20:36;14.90;99.90
68051;DHT22;54839;51.364;7.246;2022-08-21T02:23:02;14.80;99.90
68051;DHT22;54839;51.364;7.246;2022-08-21T02:25:29;14.90;99.90
68051;DHT22;54839;51.364;7.246;2022-08-21T02:27:55;14.80;99.90
68051;DHT22;54839;51.364;7.246;2022-08-21T02:30:28;14.80;99.90
68051;DHT22;54839;51.364;7.246;2022-08-21T02:32:54;14.70;99.90
68051;DHT22;54839;51.364;7.246;2022-08-21T02:35:20;14.70;99.90
68051;DHT22;54839;51.364;7.246;2022-08-21T02:37:50;14.60;99.90
68051;DHT22;54839;51.364;7.246;2022-08-21T02:40:19;14.70;99.90
68051;DHT22;54839;51.364;7.246;2022-08-21T02:42:45;14.60;99.90
68051;DHT22;54839;51.364;7.246;2022-08-21T02:45:12;14.60;99.90
68051;DHT22;54839;51.364;7.246;2022-08-21T02:47:38;14.60;99.90
68051;DHT22;54839;51.364;7.246;2022-08-21T02:50:05;14.60;99.90
68051;DHT22;54839;51.364;7.246;2022-08-21T02:52:31;14.50;99.90
68051;DHT22;54839;51.364;7.246;2022-08-21T02:54:57;14.50;99.90
68051;DHT22;54839;51.364;7.246;2022-08-21T02:57:22;14.30;99.90
68051;DHT22;54839;51.364;7.246;2022-08-21T02:59:48;14.40;99.90
68051;DHT22;54839;51.364;7.246;2022-08-21T03:02:14;14.40;99.90
68051;DHT22;54839;51.364;7.246;2022-08-21T03:04:39;14.40;99.90
68051;DHT22;54839;51.364;7.246;2022-08-21T03:07:05;14.70;99.90
68051;DHT22;54839;51.364;7.246;2022-08-21T03:09:31;14.70;99.90
68051;DHT22;54839;51.364;7.246;2022-08-21T03:11:56;14.80;99.90
68051;DHT22;54839;51.364;7.246;2022-08-21T03:14:22;14.80;99.90
68051;DHT22;54839;51.364;7.246;2022-08-21T03:16:48;14.90;99.90
68051;DHT22;54839;51.364;7.246;2022-08-21T03:19:15;14.80;99.90
68051;DHT22;54839;51.364;7.246;2022-08-21T03:21:40;14.80;99.90
68051;DHT22;54839;51.364;7.246;2022-08-21T03:24:06;14.80;99.90
68051;DHT22;54839;51.364;7.246;2022-08-21T03:26:32;14.70;99.90
68051;DHT22;54839;51.364;7.246;2022-08-21T03:28:58;14.70;99.90
68051;DHT22;54839;51.364;7.246;2022-08-21T03:31:24;14.70;99.90
68051;DHT22;54839;51.364;7.246;2022-08-21T03:33:54;14.60;99.90
68051;DHT22;54839;51.364;7.246;2022-08-21T03:36:21;14.60;99.90
68051;DHT22;54839;51.364;7.246;2022-08-21T03:38:46;14.50;99.90
68051;DHT22;54839;51.364;7.246;2022-08-21T03:41:12;14.50;99.90
68051;DHT22;54839;51.364;7.246;2022-08-21T03:43:38;14.40;99.90
68051;DHT22;54839;51.364;7.246;2022-08-21T03:46:05;14.30;99.90
68051;DHT22;54839;51.364;7.246;2022-08-21T03:48:31;14.40;99.90
68051;DHT22;54839;51.364;7.246;2022-08-21T03:50:57;14.30;99.90
68051;DHT22;54839;51.364;7.246;2022-08-21T03:53:24;14.30;99.90
68051;DHT22;54839;51.364;7.246;2022-08-21T03:55:50;14.30;99.90
68051;DHT22;54839;51.364;7.246;2022-08-21T03:58:20;14.30;99.90
68051;DHT22;54839;51.364;7.246;2022-08-21T04:00:49;14.30;99.90
68051;DHT22;54839;51.364;7.246;2022-08-21T04:03:16;14.20;99.90
68051;DHT22;54839;51.364;7.246;2022-08-21T04:05:42;14.10;99.90
68051;DHT22;54839;51.364;7.246;2022-08-21T04:08:08;14.10;99.90
68051;DHT22;54839;51.364;7.246;2022-08-21T04:10:36;14.10;99.90
68051;DHT22;54839;51.364;7.246;2022-08-21T04:13:03;14.00;99.90
68051;DHT22;54839;51.364;7.246;2022-08-21T04:15:29;13.90;99.90
68051;DHT22;54839;51.364;7.246;2022-08-21T04:17:54;13.90;99.90
68051;DHT22;54839;51.364;7.246;2022-08-21T04:20:21;14.10;99.90
68051;DHT22;54839;51.364;7.246;2022-08-21T04:22:47;14.00;99.90
68051;DHT22;54839;51.364;7.246;2022-08-21T04:25:14;14.10;99.90
68051;DHT22;54839;51.364;7.246;2022-08-21T04:27:40;14.00;99.90
68051;DHT22;54839;51.364;7.246;2022-08-21T04:30:07;14.00;99.90
68051;DHT22;54839;51.364;7.246;2022-08-21T04:32:34;14.00;99.90
68051;DHT22;54839;51.364;7.246;2022-08-21T04:35:03;14.00;99.90
68051;DHT22;54839;51.364;7.246;2022-08-21T04:37:29;14.00;99.90
68051;DHT22;54839;51.364;7.246;2022-08-21T04:39:55;14.00;99.90
68051;DHT22;54839;51.364;7.246;2022-08-21T04:42:26;14.10;99.90
68051;DHT22;54839;51.364;7.246;2022-08-21T04:44:52;14.10;99.90
68051;DHT22;54839;51.364;7.246;2022-08-21T04:47:18;14.00;99.90
68051;DHT22;54839;51.364;7.246;2022-08-21T04:49:44;14.10;99.90
68051;DHT22;54839;51.364;7.246;2022-08-21T04:52:11;14.00;99.90
68051;DHT22;54839;51.364;7.246;2022-08-21T04:54:38;14.10;99.90
68051;DHT22;54839;51.364;7.246;2022-08-21T04:57:06;14.10;99.90
68051;DHT22;54839;51.364;7.246;2022-08-21T04:59:42;14.20;99.90
68051;DHT22;54839;51.364;7.246;2022-08-21T05:02:09;14.10;99.90
68051;DHT22;54839;51.364;7.246;2022-08-21T05:04:39;14.20;99.90
68051;DHT22;54839;51.364;7.246;2022-08-21T05:07:12;14.30;99.90
68051;DHT22;54839;51.364;7.246;2022-08-21T05:09:38;14.30;99.90
68051;DHT22;54839;51.364;7.246;2022-08-21T05:12:04;14.40;99.90
68051;DHT22;54839;51.364;7.246;2022-08-21T05:14:31;14.40;99.90
68051;DHT22;54839;51.364;7.246;2022-08-21T05:16:56;14.50;99.90
68051;DHT22;54839;51.364;7.246;2022-08-21T05:19:22;14.60;99.90
68051;DHT22;54839;51.364;7.246;2022-08-21T05:21:48;14.80;99.90
68051;DHT22;54839;51.364;7.246;2022-08-21T05:24:14;14.80;99.90
68051;DHT22;54839;51.364;7.246;2022-08-21T05:26:41;14.90;99.90
68051;DHT22;54839;51.364;7.246;2022-08-21T05:29:06;15.00;99.90
68051;DHT22;54839;51.364;7.246;2022-08-21T05:31:32;14.90;99.90
68051;DHT22;54839;51.364;7.246;2022-08-21T05:33:57;14.90;99.90
68051;DHT22;54839;51.364;7.246;2022-08-21T05:36:23;15.00;99.90
68051;DHT22;54839;51.364;7.246;2022-08-21T05:38:49;15.00;99.90
68051;DHT22;54839;51.364;7.246;2022-08-21T05:41:15;15.10;99.90
68051;DHT22;54839;51.364;7.246;2022-08-21T05:43:40;15.20;99.90
68051;DHT22;54839;51.364;7.246;2022-08-21T05:46:07;15.30;99.90
68051;DHT22;54839;51.364;7.246;2022-08-21T05:48:34;15.30;99.90
68051;DHT22;54839;51.364;7.246;2022-08-21T05:51:06;15.60;99.90
68051;DHT22;54839;51.364;7.246;2022-08-21T05:53:32;15.80;99.90
68051;DHT22;54839;51.364;7.246;2022-08-21T05:55:57;15.90;99.90
68051;DHT22;54839;51.364;7.246;2022-08-21T05:58:23;16.20;99.90
68051;DHT22;54839;51.364;7.246;2022-08-21T06:00:50;16.40;99.90
68051;DHT22;54839;51.364;7.246;2022-08-21T06:03:27;16.40;99.90
68051;DHT22;54839;51.364;7.246;2022-08-21T06:05:53;16.60;99.90
68051;DHT22;54839;51.364;7.246;2022-08-21T06:08:20;16.60;99.90
68051;DHT22;54839;51.364;7.246;2022-08-21T06:10:47;16.70;99.90
68051;DHT22;54839;51.364;7.246;2022-08-21T06:13:14;16.60;99.90
68051;DHT22;54839;51.364;7.246;2022-08-21T06:15:40;16.70;99.90
68051;DHT22;54839;51.364;7.246;2022-08-21T06:18:06;16.70;99.90
68051;DHT22;54839;51.364;7.246;2022-08-21T06:20:32;16.80;99.90
68051;DHT22;54839;51.364;7.246;2022-08-21T06:22:58;16.80;99.90
68051;DHT22;54839;51.364;7.246;2022-08-21T06:25:24;16.90;99.90
68051;DHT22;54839;51.364;7.246;2022-08-21T06:27:50;16.80;99.90
68051;DHT22;54839;51.364;7.246;2022-08-21T06:30:16;16.90;99.90
68051;DHT22;54839;51.364;7.246;2022-08-21T06:32:42;16.90;99.90
68051;DHT22;54839;51.364;7.246;2022-08-21T06:35:08;17.00;99.90
68051;DHT22;54839;51.364;7.246;2022-08-21T06:37:33;17.10;99.90
68051;DHT22;54839;51.364;7.246;2022-08-21T06:39:59;17.10;99.90
68051;DHT22;54839;51.364;7.246;2022-08-21T06:42:25;17.40;99.90
68051;DHT22;54839;51.364;7.246;2022-08-21T06:44:52;17.40;99.90
68051;DHT22;54839;51.364;7.246;2022-08-21T06:47:18;17.50;99.90
68051;DHT22;54839;51.364;7.246;2022-08-21T06:49:43;17.70;99.90
68051;DHT22;54839;51.364;7.246;2022-08-21T06:52:13;17.60;99.90
68051;DHT22;54839;51.364;7.246;2022-08-21T06:54:40;17.70;99.90
68051;DHT22;54839;51.364;7.246;2022-08-21T06:57:05;17.80;99.90
68051;DHT22;54839;51.364;7.246;2022-08-21T06:59:31;17.70;99.90
68051;DHT22;54839;51.364;7.246;2022-08-21T07:01:58;17.90;99.90
68051;DHT22;54839;51.364;7.246;2022-08-21T07:04:24;18.10;99.90
68051;DHT22;54839;51.364;7.246;2022-08-21T07:06:50;18.20;99.90
68051;DHT22;54839;51.364;7.246;2022-08-21T07:09:16;18.30;99.90
68051;DHT22;54839;51.364;7.246;2022-08-21T07:11:42;18.30;99.90
68051;DHT22;54839;51.364;7.246;2022-08-21T07:14:07;18.20;99.90
68051;DHT22;54839;51.364;7.246;2022-08-21T07:16:33;18.50;99.90
68051;DHT22;54839;51.364;7.246;2022-08-21T07:18:58;18.50;99.90
68051;DHT22;54839;51.364;7.246;2022-08-21T07:21:24;18.70;99.90
68051;DHT22;54839;51.364;7.246;2022-08-21T07:23:50;18.70;99.90
68051;DHT22;54839;51.364;7.246;2022-08-21T07:26:18;18.80;99.90
68051;DHT22;54839;51.364;7.246;2022-08-21T07:28:46;18.70;99.90
68051;DHT22;54839;51.364;7.246;2022-08-21T07:31:15;18.80;99.90
68051;DHT22;54839;51.364;7.246;2022-08-21T07:33:41;19.00;99.90
68051;DHT22;54839;51.364;7.246;2022-08-21T07:36:07;18.90;99.90
68051;DHT22;54839;51.364;7.246;2022-08-21T07:38:34;18.90;99.90
68051;DHT22;54839;51.364;7.246;2022-08-21T07:41:00;18.90;99.90
68051;DHT22;54839;51.364;7.246;2022-08-21T07:43:27;19.00;99.90
68051;DHT22;54839;51.364;7.246;2022-08-21T07:45:54;19.10;99.90
68051;DHT22;54839;51.364;7.246;2022-08-21T07:48:21;19.20;99.90
68051;DHT22;54839;51.364;7.246;2022-08-21T07:50:47;19.30;99.90
68051;DHT22;54839;51.364;7.246;2022-08-21T07:53:13;19.30;99.90
68051;DHT22;54839;51.364;7.246;2022-08-21T07:55:38;19.30;99.90
68051;DHT22;54839;51.364;7.246;2022-08-21T07:58:04;19.40;99.90
68051;DHT22;54839;51.364;7.246;2022-08-21T08:00:30;19.30;99.90
68051;DHT22;54839;51.364;7.246;2022-08-21T08:02:56;19.40;99.90
68051;DHT22;54839;51.364;7.246;2022-08-21T08:05:25;19.50;99.90
68051;DHT22;54839;51.364;7.246;2022-08-21T08:07:51;19.50;99.90
68051;DHT22;54839;51.364;7.246;2022-08-21T08:10:17;19.40;99.90
68051;DHT22;54839;51.364;7.246;2022-08-21T08:12:44;19.50;99.90
68051;DHT22;54839;51.364;7.246;2022-08-21T08:15:14;19.60;99.90
68051;DHT22;54839;51.364;7.246;2022-08-21T08:17:40;19.50;99.90
68051;DHT22;54839;51.364;7.246;2022-08-21T08:20:07;19.50;99.90
68051;DHT22;54839;51.364;7.246;2022-08-21T08:22:34;19.30;99.90
68051;DHT22;54839;51.364;7.246;2022-08-21T08:25:01;19.30;99.90
68051;DHT22;54839;51.364;7.246;2022-08-21T08:27:26;19.40;99.90
68051;DHT22;54839;51.364;7.246;2022-08-21T08:29:52;19.50;99.90
68051;DHT22;54839;51.364;7.246;2022-08-21T08:32:19;19.70;99.90
68051;DHT22;54839;51.364;7.246;2022-08-21T08:34:44;19.50;99.90
68051;DHT22;54839;51.364;7.246;2022-08-21T08:37:12;19.60;99.90
68051;DHT22;54839;51.364;7.246;2022-08-21T08:39:37;19.60;99.90
68051;DHT22;54839;51.364;7.246;2022-08-21T08:42:17;19.70;99.90
68051;DHT22;54839;51.364;7.246;2022-08-21T08:44:45;19.80;99.90
68051;DHT22;54839;51.364;7.246;2022-08-21T08:47:15;19.80;99.90
68051;DHT22;54839;51.364;7.246;2022-08-21T08:50:11;19.80;99.90
68051;DHT22;54839;51.364;7.246;2022-08-21T08:52:47;19.80;99.90
68051;DHT22;54839;51.364;7.246;2022-08-21T08:55:21;19.80;99.90
68051;DHT22;54839;51.364;7.246;2022-08-21T08:57:50;20.00;99.90
68051;DHT22;54839;51.364;7.246;2022-08-21T09:00:20;20.20;99.90
68051;DHT22;54839;51.364;7.246;2022-08-21T09:02:46;20.20;99.90
68051;DHT22;54839;51.364;7.246;2022-08-21T09:05:24;20.30;99.90
68051;DHT22;54839;51.364;7.246;2022-08-21T09:10:38;20.50;99.90
68051;DHT22;54839;51.364;7.246;2022-08-21T09:21:25;21.00;99.90
68051;DHT22;54839;51.364;7.246;2022-08-21T09:26:52;21.00;99.90
68051;DHT22;54839;51.364;7.246;2022-08-21T09:29:22;21.00;99.90
68051;DHT22;54839;51.364;7.246;2022-08-21T09:31:49;21.00;99.90
68051;DHT22;54839;51.364;7.246;2022-08-21T09:34:25;21.10;99.90
68051;DHT22;54839;51.364;7.246;2022-08-21T09:36:51;21.10;99.90
68051;DHT22;54839;51.364;7.246;2022-08-21T09:39:29;21.10;99.90
68051;DHT22;54839;51.364;7.246;2022-08-21T09:42:01;20.70;99.90
68051;DHT22;54839;51.364;7.246;2022-08-21T09:44:30;20.70;99.90
68051;DHT22;54839;51.364;7.246;2022-08-21T09:46:57;20.90;99.90
68051;DHT22;54839;51.364;7.246;2022-08-21T09:49:31;20.80;99.90
68051;DHT22;54839;51.364;7.246;2022-08-21T09:51:58;20.70;99.90
68051;DHT22;54839;51.364;7.246;2022-08-21T09:54:33;20.80;99.90
68051;DHT22;54839;51.364;7.246;2022-08-21T09:57:23;20.70;99.90
68051;DHT22;54839;51.364;7.246;2022-08-21T10:00:31;20.90;99.90
68051;DHT22;54839;51.364;7.246;2022-08-21T10:03:18;21.00;99.90
68051;DHT22;54839;51.364;7.246;2022-08-21T10:06:06;21.00;99.90
68051;DHT22;54839;51.364;7.246;2022-08-21T10:08:35;21.10;99.90
68051;DHT22;54839;51.364;7.246;2022-08-21T10:11:10;21.00;99.90
68051;DHT22;54839;51.364;7.246;2022-08-21T10:14:01;21.10;99.90
68051;DHT22;54839;51.364;7.246;2022-08-21T10:19:45;21.40;99.90
68051;DHT22;54839;51.364;7.246;2022-08-21T10:33:25;21.40;99.90
68051;DHT22;54839;51.364;7.246;2022-08-21T10:35:59;21.60;99.90
68051;DHT22;54839;51.364;7.246;2022-08-21T10:52:27;21.90;99.90
68051;DHT22;54839;51.364;7.246;2022-08-21T10:55:03;22.20;99.90
68051;DHT22;54839;51.364;7.246;2022-08-21T10:57:46;22.40;99.90
68051;DHT22;54839;51.364;7.246;2022-08-21T11:00:16;22.40;99.90
68051;DHT22;54839;51.364;7.246;2022-08-21T11:03:07;22.30;99.90
68051;DHT22;54839;51.364;7.246;2022-08-21T11:05:43;22.20;99.90
68051;DHT22;54839;51.364;7.246;2022-08-21T11:08:21;22.40;99.90
68051;DHT22;54839;51.364;7.246;2022-08-21T11:10:52;22.70;99.90
68051;DHT22;54839;51.364;7.246;2022-08-21T11:13:46;22.50;99.90
68051;DHT22;54839;51.364;7.246;2022-08-21T11:16:41;22.90;99.90
68051;DHT22;54839;51.364;7.246;2022-08-21T11:19:30;23.00;99.90
68051;DHT22;54839;51.364;7.246;2022-08-21T11:24:49;23.20;99.90
68051;DHT22;54839;51.364;7.246;2022-08-21T11:30:00;23.60;99.90
68051;DHT22;54839;51.364;7.246;2022-08-21T11:32:51;23.50;99.90
68051;DHT22;54839;51.364;7.246;2022-08-21T11:49:10;23.70;99.90
68051;DHT22;54839;51.364;7.246;2022-08-21T11:56:55;23.50;99.90
68051;DHT22;54839;51.364;7.246;2022-08-21T12:01:57;23.70;99.90
68051;DHT22;54839;51.364;7.246;2022-08-21T12:04:27;23.80;99.90
68051;DHT22;54839;51.364;7.246;2022-08-21T12:06:53;23.80;99.90
68051;DHT22;54839;51.364;7.246;2022-08-21T12:12:02;24.10;99.90
68051;DHT22;54839;51.364;7.246;2022-08-21T12:17:17;24.60;99.90
68051;DHT22;54839;51.364;7.246;2022-08-21T12:19:43;24.40;99.90
68051;DHT22;54839;51.364;7.246;2022-08-21T12:22:12;24.40;99.90
68051;DHT22;54839;51.364;7.246;2022-08-21T12:24:48;24.40;99.90
68051;DHT22;54839;51.364;7.246;2022-08-21T12:27:21;24.10;99.90
68051;DHT22;54839;51.364;7.246;2022-08-21T12:29:55;24.20;99.90
68051;DHT22;54839;51.364;7.246;2022-08-21T12:32:27;24.30;99.90
68051;DHT22;54839;51.364;7.246;2022-08-21T12:35:10;24.20;99.90
68051;DHT22;54839;51.364;7.246;2022-08-21T12:37:47;24.50;99.90
68051;DHT22;54839;51.364;7.246;2022-08-21T12:40:25;24.50;99.90
68051;DHT22;54839;51.364;7.246;2022-08-21T12:42:55;24.20;99.90
68051;DHT22;54839;51.364;7.246;2022-08-21T12:45:31;24.20;99.90
68051;DHT22;54839;51.364;7.246;2022-08-21T12:48:10;24.70;99.90
68051;DHT22;54839;51.364;7.246;2022-08-21T12:50:45;26.50;99.20
68051;DHT22;54839;51.364;7.246;2022-08-21T12:55:56;30.10;92.30
68051;DHT22;54839;51.364;7.246;2022-08-21T12:58:26;32.20;91.60
68051;DHT22;54839;51.364;7.246;2022-08-21T13:01:03;32.90;74.20
68051;DHT22;54839;51.364;7.246;2022-08-21T13:03:30;32.00;68.30
68051;DHT22;54839;51.364;7.246;2022-08-21T13:05:58;32.80;69.20
68051;DHT22;54839;51.364;7.246;2022-08-21T13:08:26;32.90;68.00
68051;DHT22;54839;51.364;7.246;2022-08-21T13:11:01;33.90;65.70
68051;DHT22;54839;51.364;7.246;2022-08-21T13:13:28;33.10;62.20
68051;DHT22;54839;51.364;7.246;2022-08-21T13:16:05;32.90;62.60
68051;DHT22;54839;51.364;7.246;2022-08-21T13:18:35;32.40;63.00
68051;DHT22;54839;51.364;7.246;2022-08-21T13:21:14;31.90;60.00
68051;DHT22;54839;51.364;7.246;2022-08-21T13:23:41;32.20;62.60
68051;DHT22;54839;51.364;7.246;2022-08-21T13:26:21;32.90;62.70
68051;DHT22;54839;51.364;7.246;2022-08-21T13:28:48;34.40;60.20
68051;DHT22;54839;51.364;7.246;2022-08-21T13:31:22;35.10;57.90
68051;DHT22;54839;51.364;7.246;2022-08-21T13:33:50;36.00;56.80
68051;DHT22;54839;51.364;7.246;2022-08-21T13:36:25;35.00;54.50
68051;DHT22;54839;51.364;7.246;2022-08-21T13:38:52;35.10;55.40
68051;DHT22;54839;51.364;7.246;2022-08-21T13:41:23;33.70;58.10
68051;DHT22;54839;51.364;7.246;2022-08-21T13:46:27;37.70;52.50
68051;DHT22;54839;51.364;7.246;2022-08-21T13:48:54;38.20;52.00
68051;DHT22;54839;51.364;7.246;2022-08-21T13:51:21;38.60;50.50
68051;DHT22;54839;51.364;7.246;2022-08-21T13:53:49;38.20;46.70
68051;DHT22;54839;51.364;7.246;2022-08-21T13:56:32;38.50;48.10
68051;DHT22;54839;51.364;7.246;2022-08-21T13:59:00;38.20;48.80
68051;DHT22;54839;51.364;7.246;2022-08-21T14:01:30;34.60;49.90
68051;DHT22;54839;51.364;7.246;2022-08-21T14:04:24;32.90;53.40
68051;DHT22;54839;51.364;7.246;2022-08-21T14:06:48;33.80;53.10
68051;DHT22;54839;51.364;7.246;2022-08-21T14:09:30;34.80;49.10
68051;DHT22;54839;51.364;7.246;2022-08-21T14:11:58;34.60;48.50
68051;DHT22;54839;51.364;7.246;2022-08-21T14:14:28;35.20;47.90
68051;DHT22;54839;51.364;7.246;2022-08-21T14:17:04;37.90;48.10
68051;DHT22;54839;51.364;7.246;2022-08-21T14:19:44;38.90;44.20
68051;DHT22;54839;51.364;7.246;2022-08-21T14:22:36;39.80;44.60
68051;DHT22;54839;51.364;7.246;2022-08-21T14:25:05;40.70;43.30
68051;DHT22;54839;51.364;7.246;2022-08-21T14:27:33;33.40;47.00
68051;DHT22;54839;51.364;7.246;2022-08-21T14:30:03;33.70;50.60
68051;DHT22;54839;51.364;7.246;2022-08-21T14:32:39;33.30;50.50
68051;DHT22;54839;51.364;7.246;2022-08-21T14:35:05;32.10;51.30
68051;DHT22;54839;51.364;7.246;2022-08-21T14:37:31;31.40;51.70
68051;DHT22;54839;51.364;7.246;2022-08-21T14:39:57;32.60;52.60
68051;DHT22;54839;51.364;7.246;2022-08-21T14:42:23;32.50;50.90
68051;DHT22;54839;51.364;7.246;2022-08-21T14:44:49;31.90;50.30
68051;DHT22;54839;51.364;7.246;2022-08-21T14:47:15;32.80;52.10
68051;DHT22;54839;51.364;7.246;2022-08-21T14:49:40;33.30;51.40
68051;DHT22;54839;51.364;7.246;2022-08-21T14:52:06;32.00;50.70
68051;DHT22;54839;51.364;7.246;2022-08-21T14:54:32;30.60;53.30
68051;DHT22;54839;51.364;7.246;2022-08-21T14:57:01;31.20;53.40
68051;DHT22;54839;51.364;7.246;2022-08-21T14:59:28;32.40;52.10
68051;DHT22;54839;51.364;7.246;2022-08-21T15:01:53;32.90;51.20
68051;DHT22;54839;51.364;7.246;2022-08-21T15:04:19;32.50;51.50
68051;DHT22;54839;51.364;7.246;2022-08-21T15:06:44;31.90;52.00
68051;DHT22;54839;51.364;7.246;2022-08-21T15:09:10;32.70;52.40
68051;DHT22;54839;51.364;7.246;2022-08-21T15:11:36;32.70;52.20
68051;DHT22;54839;51.364;7.246;2022-08-21T15:14:03;33.10;50.20
68051;DHT22;54839;51.364;7.246;2022-08-21T15:16:31;34.70;48.80
68051;DHT22;54839;51.364;7.246;2022-08-21T15:18:57;36.20;45.50
68051;DHT22;54839;51.364;7.246;2022-08-21T15:21:23;37.50;43.60
68051;DHT22;54839;51.364;7.246;2022-08-21T15:23:48;39.10;43.90
68051;DHT22;54839;51.364;7.246;2022-08-21T15:26:14;38.00;43.40
68051;DHT22;54839;51.364;7.246;2022-08-21T15:28:40;39.20;42.60
68051;DHT22;54839;51.364;7.246;2022-08-21T15:31:06;37.80;42.20
68051;DHT22;54839;51.364;7.246;2022-08-21T15:33:32;36.30;44.80
68051;DHT22;54839;51.364;7.246;2022-08-21T15:35:57;35.30;46.80
68051;DHT22;54839;51.364;7.246;2022-08-21T15:38:23;35.50;45.20
68051;DHT22;54839;51.364;7.246;2022-08-21T15:40:49;38.80;44.30
68051;DHT22;54839;51.364;7.246;2022-08-21T15:43:31;39.50;42.70
68051;DHT22;54839;51.364;7.246;2022-08-21T15:46:00;38.30;43.00
68051;DHT22;54839;51.364;7.246;2022-08-21T15:48:26;37.30;43.50
68051;DHT22;54839;51.364;7.246;2022-08-21T15:50:52;36.00;45.70
68051;DHT22;54839;51.364;7.246;2022-08-21T15:53:18;34.10;47.50
68051;DHT22;54839;51.364;7.246;2022-08-21T15:55:43;32.00;49.50
68051;DHT22;54839;51.364;7.246;2022-08-21T15:58:14;31.40;50.60
68051;DHT22;54839;51.364;7.246;2022-08-21T16:00:41;31.10;51.70
68051;DHT22;54839;51.364;7.246;2022-08-21T16:03:10;31.60;50.70
68051;DHT22;54839;51.364;7.246;2022-08-21T16:05:37;32.80;49.00
68051;DHT22;54839;51.364;7.246;2022-08-21T16:08:03;34.20;47.90
68051;DHT22;54839;51.364;7.246;2022-08-21T16:10:29;35.60;47.30
68051;DHT22;54839;51.364;7.246;2022-08-21T16:12:58;36.70;43.30
68051;DHT22;54839;51.364;7.246;2022-08-21T16:15:26;38.40;43.00
68051;DHT22;54839;51.364;7.246;2022-08-21T16:17:53;38.10;43.90
68051;DHT22;54839;51.364;7.246;2022-08-21T16:20:22;38.10;41.80
68051;DHT22;54839;51.364;7.246;2022-08-21T16:22:51;39.60;42.30
68051;DHT22;54839;51.364;7.246;2022-08-21T16:25:17;39.40;41.70
68051;DHT22;54839;51.364;7.246;2022-08-21T16:27:46;38.10;42.70
68051;DHT22;54839;51.364;7.246;2022-08-21T16:30:14;36.40;44.10
68051;DHT22;54839;51.364;7.246;2022-08-21T16:32:40;35.30;45.30
68051;DHT22;54839;51.364;7.246;2022-08-21T16:35:07;34.00;46.60
68051;DHT22;54839;51.364;7.246;2022-08-21T16:37:35;32.90;48.10
68051;DHT22;54839;51.364;7.246;2022-08-21T16:40:00;31.90;49.20
68051;DHT22;54839;51.364;7.246;2022-08-21T16:42:26;30.80;50.20
68051;DHT22;54839;51.364;7.246;2022-08-21T16:44:53;30.30;50.60
68051;DHT22;54839;51.364;7.246;2022-08-21T16:47:19;30.50;51.20
68051;DHT22;54839;51.364;7.246;2022-08-21T16:49:45;31.60;49.60
68051;DHT22;54839;51.364;7.246;2022-08-21T16:52:11;32.30;48.80
68051;DHT22;54839;51.364;7.246;2022-08-21T16:54:37;32.50;48.30
68051;DHT22;54839;51.364;7.246;2022-08-21T16:57:02;33.00;48.00
68051;DHT22;54839;51.364;7.246;2022-08-21T16:59:28;32.70;47.80
68051;DHT22;54839;51.364;7.246;2022-08-21T17:01:54;33.10;47.50